createdAt,value
2022-11-01T06:05:56.569Z,5.37
2022-11-01T06:07:00.142Z,5.21
2022-11-01T06:08:03.784Z,5.00
2022-11-01T06:09:07.498Z,4.96
2022-11-01T06:10:11.231Z,4.93
2022-11-01T06:11:14.821Z,4.88
2022-11-01T06:12:19.058Z,4.95
2022-11-01T06:13:22.457Z,5.08
2022-11-01T06:14:25.692Z,5.15
2022-11-01T06:15:29.043Z,5.27
2022-11-01T06:16:32.451Z,5.49
2022-11-01T06:17:37.368Z,5.53
2022-11-01T06:18:41.737Z,5.53
2022-11-01T06:19:45.303Z,5.47
2022-11-01T06:20:49.596Z,5.58
2022-11-01T06:21:52.784Z,5.71
2022-11-01T06:22:57.798Z,5.78
2022-11-01T06:24:01.152Z,5.90
2022-11-01T06:25:05.717Z,5.85
2022-11-01T06:26:09.873Z,5.89
2022-11-01T06:27:12.863Z,5.94
2022-11-01T06:28:15.485Z,6.05
2022-11-01T06:29:18.675Z,6.18
2022-11-01T06:30:21.566Z,6.34
2022-11-01T06:31:25.178Z,6.52
2022-11-01T06:32:28.041Z,6.56
2022-11-01T06:33:32.676Z,6.63
2022-11-01T06:34:40.887Z,6.84
2022-11-01T06:35:40.871Z,7.08
2022-11-01T06:36:44.256Z,7.73
2022-11-01T06:37:48.294Z,8.65
2022-11-01T06:38:52.101Z,9.55
2022-11-01T06:39:55.513Z,9.47
2022-11-01T06:40:58.589Z,9.41
2022-11-01T06:42:02.001Z,9.41
2022-11-01T06:43:05.451Z,9.26
2022-11-01T06:44:09.220Z,9.39
2022-11-01T06:45:15.330Z,9.74
2022-11-01T06:46:18.848Z,10.12
2022-11-01T06:47:22.032Z,10.39
2022-11-01T06:48:27.405Z,10.24
2022-11-01T06:49:30.901Z,10.20
2022-11-01T06:50:34.328Z,10.21
2022-11-01T06:51:37.090Z,10.31
2022-11-01T06:52:40.485Z,10.27
2022-11-01T06:53:44.046Z,10.47
2022-11-01T06:54:48.036Z,10.75
2022-11-01T06:55:51.249Z,11.50
2022-11-01T06:56:54.609Z,12.41
2022-11-01T06:57:59.652Z,13.76
2022-11-01T06:59:02.675Z,15.70
2022-11-01T07:00:07.405Z,17.20
2022-11-01T07:01:09.770Z,18.25
2022-11-01T07:02:14.825Z,19.21
2022-11-01T07:03:18.961Z,19.62
2022-11-01T07:04:23.665Z,20.17
2022-11-01T07:05:29.368Z,19.45
2022-11-01T07:06:32.525Z,20.19
2022-11-01T07:07:34.779Z,20.90
2022-11-01T07:08:38.178Z,20.63
2022-11-01T07:09:41.323Z,20.94
2022-11-01T07:10:45.604Z,21.81
2022-11-01T07:11:49.957Z,22.70
2022-11-01T07:13:01.826Z,23.26
2022-11-01T07:14:05.114Z,23.55
2022-11-01T07:15:08.827Z,24.13
2022-11-01T07:16:12.123Z,24.39
2022-11-01T07:17:15.440Z,24.54
2022-11-01T07:18:18.924Z,24.58
2022-11-01T07:19:24.101Z,24.31
2022-11-01T07:20:28.441Z,24.14
2022-11-01T07:21:32.252Z,24.17
2022-11-01T07:22:35.544Z,24.58
2022-11-01T07:23:38.681Z,24.46
2022-11-01T07:24:45.264Z,24.22
2022-11-01T07:25:53.265Z,24.71
2022-11-01T07:26:56.678Z,25.03
2022-11-01T07:28:03.480Z,24.90
2022-11-01T07:29:06.821Z,25.26
2022-11-01T07:30:12.075Z,25.37
2022-11-01T07:31:17.382Z,25.47
2022-11-01T07:32:23.488Z,25.39
2022-11-01T07:33:26.617Z,25.25
2022-11-01T07:34:29.568Z,25.33
2022-11-01T07:35:34.266Z,25.51
2022-11-01T07:36:37.506Z,25.60
2022-11-01T07:37:40.634Z,25.55
2022-11-01T07:38:44.113Z,25.51
2022-11-01T07:39:47.651Z,25.86
2022-11-01T07:40:58.125Z,26.05
2022-11-01T07:42:04.322Z,26.07
2022-11-01T07:43:07.673Z,25.66
2022-11-01T07:44:10.921Z,25.54
2022-11-01T07:45:14.842Z,25.88
2022-11-01T07:46:19.010Z,25.78
2022-11-01T07:47:22.594Z,25.89
2022-11-01T07:48:25.263Z,26.20
2022-11-01T07:49:28.132Z,26.10
2022-11-01T07:50:32.484Z,26.62
2022-11-01T07:51:35.350Z,26.79
2022-11-01T07:52:38.585Z,26.69
2022-11-01T07:53:43.418Z,26.59
2022-11-01T11:38:43.544Z,13.82
2022-11-01T11:39:49.032Z,13.88
2022-11-01T11:40:52.856Z,13.91
2022-11-01T11:42:01.672Z,13.84
2022-11-01T11:43:24.719Z,14.00
2022-11-01T11:44:42.535Z,14.03
2022-11-01T11:45:48.848Z,14.15
2022-11-01T11:46:58.423Z,14.34
2022-11-01T11:48:18.732Z,14.31
2022-11-01T11:49:29.824Z,14.08
2022-11-01T11:50:33.993Z,14.20
2022-11-01T11:51:38.869Z,14.41
2022-11-01T11:52:42.687Z,14.46
2022-11-01T11:53:48.797Z,14.51
2022-11-01T11:54:52.515Z,14.58
2022-11-01T11:55:57.276Z,14.55
2022-11-01T11:57:19.683Z,14.50
2022-11-01T11:59:58.135Z,14.37
2022-11-01T12:01:06.430Z,14.36
2022-11-01T12:02:20.683Z,14.42
2022-11-01T12:03:24.414Z,14.51
2022-11-01T12:04:32.091Z,14.53
2022-11-01T12:05:34.970Z,14.63
2022-11-01T12:06:38.997Z,14.54
2022-11-01T12:07:47.306Z,14.50
2022-11-01T12:08:52.599Z,14.47
2022-11-01T12:09:56.111Z,14.45
2022-11-01T12:10:58.762Z,14.48
2022-11-01T12:12:08.024Z,14.51
2022-11-01T12:13:31.888Z,14.45
2022-11-01T12:14:37.896Z,14.50
2022-11-01T12:15:41.669Z,14.51
2022-11-01T12:16:45.334Z,14.54
2022-11-01T12:17:48.943Z,14.51
2022-11-01T12:18:55.433Z,14.44
2022-11-01T12:20:12.449Z,14.37
2022-11-01T12:21:18.156Z,14.34
2022-11-01T12:22:21.561Z,14.43
2022-11-01T12:23:26.616Z,14.50
2022-11-01T12:24:37.864Z,14.47
2022-11-01T12:25:43.037Z,14.40
2022-11-01T12:26:46.648Z,14.29
2022-11-01T12:27:57.412Z,14.27
2022-11-01T12:29:08.654Z,14.35
2022-11-01T12:30:15.231Z,14.39
2022-11-01T12:31:20.021Z,14.42
2022-11-01T12:32:29.824Z,14.34
2022-11-01T12:33:35.149Z,14.33
2022-11-01T12:59:38.690Z,13.99
2022-11-01T13:00:49.211Z,13.97
2022-11-01T13:01:54.503Z,13.94
2022-11-01T13:03:04.833Z,13.92
2022-11-01T13:04:14.908Z,13.87
2022-11-01T13:05:22.905Z,13.86
2022-11-01T13:06:30.786Z,13.87
2022-11-01T13:07:49.776Z,13.84
2022-11-01T13:09:11.858Z,13.81
2022-11-01T13:10:17.139Z,13.81
2022-11-01T13:11:28.062Z,13.75
2022-11-01T13:12:41.311Z,13.74
2022-11-01T13:13:46.769Z,13.72
2022-11-01T13:14:52.038Z,13.59
2022-11-01T13:15:56.940Z,13.52
2022-11-01T13:17:02.191Z,13.47
2022-11-01T13:18:22.304Z,13.58
2022-11-01T13:19:29.048Z,13.63
2022-11-01T13:20:38.758Z,13.65
2022-11-01T13:21:47.318Z,13.64
2022-11-01T13:22:55.332Z,13.62
2022-11-01T13:24:03.330Z,13.59
2022-11-01T13:25:14.239Z,13.58
2022-11-01T13:26:28.716Z,13.58
2022-11-01T13:27:39.960Z,13.49
2022-11-01T13:28:58.402Z,13.42
2022-11-01T13:30:04.815Z,13.33
2022-11-01T13:31:09.868Z,13.20
2022-11-01T13:32:15.053Z,13.23
2022-11-01T13:33:24.438Z,13.19
2022-11-01T13:34:47.146Z,13.09
2022-11-01T13:36:12.086Z,13.10
2022-11-01T13:37:34.616Z,13.16
2022-11-01T13:38:44.972Z,13.29
2022-11-01T13:40:01.323Z,13.33
2022-11-01T13:41:05.403Z,13.32
2022-11-01T13:42:17.889Z,13.33
2022-11-01T13:43:23.455Z,13.31
2022-11-01T13:44:28.944Z,13.30
2022-11-01T13:45:37.167Z,13.28
2022-11-01T13:46:47.320Z,13.26
2022-11-01T13:47:52.936Z,13.21
2022-11-01T13:49:01.130Z,13.20
2022-11-01T13:50:21.438Z,13.19
2022-11-01T13:51:26.300Z,13.20
2022-11-01T13:52:30.643Z,13.20
2022-11-01T13:53:41.681Z,13.21
2022-11-01T13:54:47.378Z,13.18
2022-11-01T13:55:53.078Z,13.14
2022-11-01T13:57:03.983Z,13.14
2022-11-01T13:58:07.421Z,13.13
2022-11-01T13:59:13.828Z,13.13
2022-11-01T14:00:36.027Z,13.10
2022-11-01T14:01:40.140Z,13.07
2022-11-01T14:02:49.918Z,13.06
2022-11-01T14:03:55.318Z,13.02
2022-11-01T14:05:03.200Z,12.98
2022-11-01T14:06:11.208Z,12.96
2022-11-01T14:07:16.370Z,12.93
2022-11-01T14:08:29.707Z,12.92
2022-11-01T14:09:33.181Z,12.89
2022-11-01T14:10:38.162Z,12.87
2022-11-01T14:11:46.592Z,12.85
2022-11-01T14:13:00.116Z,12.82
2022-11-01T14:14:06.659Z,12.82
2022-11-01T14:15:15.499Z,12.80
2022-11-01T14:16:20.770Z,12.76
2022-11-01T14:17:26.996Z,12.69
2022-11-01T14:18:32.047Z,12.68
2022-11-01T14:19:35.552Z,12.64
2022-11-01T14:20:43.759Z,12.62
2022-11-01T14:21:48.411Z,12.62
2022-11-01T14:22:52.647Z,12.59
2022-11-01T14:24:07.031Z,12.57
2022-11-01T14:25:15.262Z,12.56
2022-11-01T14:26:22.698Z,12.52
2022-11-01T14:27:31.214Z,12.48
2022-11-01T14:28:34.837Z,12.45
2022-11-01T14:29:38.536Z,12.44
2022-11-01T14:30:42.564Z,12.32
2022-11-01T14:31:47.199Z,12.29
2022-11-01T14:32:56.899Z,12.28
2022-11-01T14:34:03.733Z,12.25
2022-11-01T14:35:10.788Z,12.21
2022-11-01T14:36:16.084Z,12.20
2022-11-01T14:37:23.204Z,12.17
2022-11-01T14:38:27.793Z,12.14
2022-11-01T14:39:42.370Z,12.12
2022-11-01T14:40:52.433Z,12.12
2022-11-01T14:41:58.768Z,12.10
2022-11-01T14:43:11.058Z,12.11
2022-11-01T14:44:29.173Z,12.10
2022-11-01T14:45:36.033Z,12.10
2022-11-01T14:46:46.688Z,12.11
2022-11-01T14:47:47.464Z,12.10
2022-11-01T14:48:55.205Z,12.09
2022-11-01T14:50:00.843Z,12.09
2022-11-01T14:51:11.003Z,12.06
2022-11-01T14:52:18.506Z,12.02
2022-11-01T14:53:36.911Z,11.93
2022-11-01T14:54:45.112Z,11.93
2022-11-01T14:55:48.733Z,11.92
2022-11-01T14:56:52.956Z,11.88
2022-11-01T14:58:08.902Z,11.89
2022-11-01T14:59:14.080Z,11.83
2022-11-01T15:00:32.239Z,11.77
2022-11-01T15:01:36.416Z,11.74
2022-11-01T15:02:40.516Z,11.72
2022-11-01T15:03:59.536Z,11.69
2022-11-01T15:05:03.235Z,11.67
2022-11-01T15:06:08.632Z,11.66
2022-11-01T15:07:26.213Z,11.64
2022-11-01T15:08:38.938Z,11.63
2022-11-01T15:09:42.326Z,11.61
2022-11-01T15:10:46.680Z,11.58
2022-11-01T15:11:51.229Z,11.58
2022-11-01T15:12:59.480Z,11.58
2022-11-01T15:14:05.326Z,11.59
2022-11-01T15:15:11.449Z,11.56
2022-11-01T15:16:19.141Z,11.54
2022-11-01T15:17:23.481Z,11.52
2022-11-01T15:18:27.289Z,11.50
2022-11-01T15:19:31.311Z,11.46
2022-11-01T15:20:36.384Z,11.44
2022-11-01T15:21:46.672Z,11.45
2022-11-01T15:22:48.616Z,11.45
2022-11-01T15:23:53.388Z,11.44
2022-11-01T15:24:59.402Z,11.45
2022-11-01T15:26:03.636Z,11.46
2022-11-01T15:27:09.232Z,11.44
2022-11-01T15:28:14.183Z,11.41
2022-11-01T15:29:19.478Z,11.40
2022-11-01T15:30:24.761Z,11.41
2022-11-01T15:31:28.772Z,11.42
2022-11-01T15:32:34.517Z,11.43
2022-11-01T15:33:37.062Z,11.42
2022-11-01T15:34:40.413Z,11.38
2022-11-01T15:35:44.164Z,11.38
2022-11-01T15:36:46.623Z,11.35
2022-11-01T15:37:51.249Z,11.34
2022-11-01T15:38:55.498Z,11.29
2022-11-01T15:41:21.729Z,11.26
2022-11-01T15:42:29.200Z,11.20
2022-11-01T15:43:35.799Z,11.20
2022-11-01T15:44:46.445Z,11.19
2022-11-01T15:45:52.944Z,11.17
2022-11-01T15:46:58.268Z,11.16
2022-11-01T15:48:07.944Z,11.11
2022-11-01T15:49:16.242Z,11.09
2022-11-01T15:50:23.303Z,11.09
2022-11-01T15:51:31.508Z,11.04
2022-11-01T15:52:36.153Z,11.03
2022-11-01T15:53:43.644Z,11.02
2022-11-01T15:54:55.402Z,10.98
2022-11-01T15:56:02.282Z,10.94
2022-11-01T15:57:08.571Z,10.91
2022-11-01T15:58:13.560Z,10.89
2022-11-01T15:59:18.298Z,10.89
2022-11-01T16:00:26.317Z,10.86
2022-11-01T16:01:29.790Z,10.83
2022-11-01T16:02:36.293Z,10.79
2022-11-01T16:03:43.096Z,10.75
2022-11-01T16:04:47.424Z,10.67
2022-11-01T16:30:55.921Z,10.54
2022-11-01T16:32:10.266Z,10.57
2022-11-01T16:33:21.282Z,10.56
2022-11-01T16:34:24.816Z,10.54
2022-11-01T16:35:32.298Z,10.52
2022-11-01T16:36:37.781Z,10.51
2022-11-01T16:37:43.381Z,10.51
2022-11-01T16:38:47.930Z,10.49
2022-11-01T21:19:06.121Z,8.71
2022-11-01T21:20:12.983Z,8.62
2022-11-01T21:21:21.242Z,8.64
2022-11-01T21:22:24.751Z,8.72
2022-11-01T21:23:31.686Z,8.78
2022-11-01T21:24:36.344Z,8.83
2022-11-01T21:25:39.338Z,8.82
2022-11-01T21:26:42.620Z,8.87
2022-11-01T21:27:48.623Z,8.81
2022-11-01T21:28:55.306Z,8.71
2022-11-01T21:31:29.871Z,8.58
2022-11-01T21:32:42.576Z,8.46
2022-11-01T21:33:46.786Z,8.52
2022-11-01T21:34:50.519Z,8.52
2022-11-01T21:35:53.796Z,8.55
2022-11-01T21:36:59.324Z,8.65
2022-11-01T21:38:03.114Z,8.74
2022-11-01T21:39:25.828Z,8.77
2022-11-01T21:40:32.480Z,8.84
2022-11-01T21:41:40.461Z,8.81
2022-11-01T21:42:45.758Z,8.74
2022-11-01T21:43:49.371Z,8.68
2022-11-01T21:44:54.319Z,8.65
2022-11-01T21:46:00.896Z,8.69
2022-11-01T21:47:09.074Z,8.75
2022-11-01T21:48:16.118Z,8.79
2022-11-01T21:49:28.199Z,8.89
2022-11-01T21:50:32.400Z,8.86
2022-11-01T21:51:35.837Z,8.92
2022-11-01T21:52:38.713Z,8.92
2022-11-01T21:53:43.365Z,8.93
2022-11-01T21:54:47.500Z,8.87
2022-11-01T21:55:52.256Z,8.77
2022-11-01T21:56:55.960Z,8.77
2022-11-01T21:57:59.790Z,8.71
2022-11-01T21:59:02.966Z,8.69
2022-11-01T22:00:06.825Z,8.70
2022-11-01T22:01:09.567Z,8.68
2022-11-01T22:02:13.937Z,8.64
2022-11-01T22:03:17.405Z,8.71
2022-11-01T22:04:23.392Z,8.79
2022-11-01T22:05:26.414Z,8.85
2022-11-01T22:06:29.710Z,8.82
2022-11-01T22:07:35.029Z,8.74
2022-11-01T22:08:42.719Z,8.72
2022-11-01T22:09:47.869Z,8.65
2022-11-01T22:10:52.906Z,8.57
2022-11-01T22:11:56.424Z,8.53
2022-11-01T22:13:02.941Z,8.51
2022-11-01T22:14:05.003Z,8.46
2022-11-01T22:15:09.284Z,8.48
2022-11-01T22:16:14.834Z,8.45
2022-11-01T22:17:18.220Z,8.49
2022-11-01T22:18:24.956Z,8.46
2022-11-01T22:19:25.969Z,8.51
2022-11-01T22:20:30.107Z,8.56
2022-11-01T22:21:33.760Z,8.54
2022-11-01T22:22:36.890Z,8.43
2022-11-01T22:23:41.064Z,8.35
2022-11-01T22:24:44.633Z,8.36
2022-11-01T22:25:48.137Z,8.35
2022-11-01T22:26:54.061Z,8.36
2022-11-01T22:27:56.731Z,8.33
2022-11-01T22:28:58.966Z,8.42
2022-11-01T22:30:03.322Z,8.48
2022-11-01T22:31:06.409Z,8.41
2022-11-01T22:32:09.705Z,8.36
2022-11-01T22:33:14.044Z,8.31
2022-11-01T22:34:17.784Z,8.29
2022-11-01T22:35:21.248Z,8.25
2022-11-01T22:36:28.814Z,8.32
2022-11-01T22:38:48.902Z,8.27
2022-11-01T22:39:53.219Z,8.19
2022-11-01T22:40:59.136Z,8.25
2022-11-01T22:42:02.561Z,8.23
2022-11-01T22:43:08.989Z,8.19
2022-11-01T22:44:15.102Z,8.15
2022-11-01T22:45:19.552Z,8.05
2022-11-01T22:46:26.603Z,8.06
2022-11-01T22:47:32.302Z,8.05
2022-11-01T22:48:37.891Z,8.08
2022-11-01T22:49:42.429Z,8.12
2022-11-01T22:50:45.308Z,8.12
2022-11-01T22:51:52.004Z,8.14
2022-11-01T22:52:56.190Z,8.18
2022-11-01T22:53:59.388Z,8.13
2022-11-01T22:55:06.863Z,8.07
2022-11-01T22:56:11.793Z,8.00
2022-11-01T22:57:20.855Z,7.98
2022-11-01T22:58:29.071Z,7.95
2022-11-01T22:59:33.449Z,8.01
2022-11-01T23:00:38.789Z,7.98
2022-11-01T23:01:43.549Z,7.96
2022-11-01T23:02:49.246Z,7.93
2022-11-01T23:03:56.304Z,7.87
2022-11-01T23:05:07.220Z,7.88
2022-11-01T23:06:11.600Z,7.95
2022-11-01T23:07:26.983Z,7.98
2022-11-01T23:08:34.396Z,8.00
2022-11-01T23:09:37.848Z,7.97
2022-11-01T23:10:43.979Z,7.97
2022-11-01T23:12:10.763Z,7.99
2022-11-01T23:13:36.738Z,7.98
2022-11-01T23:14:43.789Z,8.11
2022-11-01T23:15:47.075Z,8.12
2022-11-01T23:16:50.371Z,8.17
2022-11-01T23:17:54.537Z,8.24
2022-11-01T23:18:59.904Z,8.23
2022-11-01T23:20:05.273Z,8.25
2022-11-01T23:21:09.298Z,8.25
2022-11-01T23:22:17.297Z,8.28
2022-11-01T23:23:21.285Z,8.32
2022-11-01T23:24:25.473Z,8.31
2022-11-01T23:25:31.677Z,8.32
2022-11-01T23:26:36.852Z,8.29
2022-11-01T23:27:42.446Z,8.31
2022-11-01T23:28:46.070Z,8.28
2022-11-01T23:29:50.830Z,8.33
2022-11-01T23:30:53.814Z,8.35
2022-11-01T23:31:57.420Z,8.38
2022-11-01T23:33:05.275Z,8.35
2022-11-01T23:34:10.801Z,8.33
2022-11-01T23:35:15.963Z,8.32
2022-11-01T23:36:26.065Z,8.31
2022-11-01T23:37:28.726Z,8.31
2022-11-01T23:38:34.021Z,8.27
2022-11-01T23:39:36.370Z,8.29
2022-11-01T23:40:39.588Z,8.28
2022-11-01T23:41:45.160Z,8.27
2022-11-01T23:42:49.520Z,8.33
2022-11-01T23:43:55.193Z,8.34
2022-11-01T23:44:59.328Z,8.34
2022-11-01T23:46:03.039Z,8.42
2022-11-01T23:47:14.795Z,8.43
2022-11-01T23:48:20.180Z,8.48
2022-11-01T23:49:26.813Z,8.52
2022-11-01T23:50:32.084Z,8.49
2022-11-01T23:51:35.279Z,8.51
2022-11-01T23:52:49.434Z,8.52
2022-11-01T23:53:54.403Z,8.53
2022-11-01T23:54:57.698Z,8.52
2022-11-01T23:56:02.398Z,8.45
2022-11-01T23:57:07.121Z,8.48
2022-11-01T23:58:12.696Z,8.52
2022-11-01T23:59:16.638Z,8.55
